sensor_id;sensor_type;location;lat;lon;timestamp;pressure;altitude;pressure_sealevel;temperature;humidity
10897;BME280;5501;51.176;6.470;2023-09-19T09:39:13;100619.53;;;18.87;77.06
10897;BME280;5501;51.176;6.470;2023-09-19T09:44:18;100615.69;;;18.91;76.46
10897;BME280;5501;51.176;6.470;2023-09-19T09:49:25;100635.41;;;19.34;72.96
10897;BME280;5501;51.176;6.470;2023-09-19T09:54:35;100626.44;;;19.19;73.99
10897;BME280;5501;51.176;6.470;2023-09-19T09:59:50;100644.31;;;19.48;71.50
10897;BME280;5501;51.176;6.470;2023-09-19T10:04:56;100630.66;;;19.37;72.38
10897;BME280;5501;51.176;6.470;2023-09-19T10:10:38;100614.47;;;19.37;72.24
10897;BME280;5501;51.176;6.470;2023-09-19T10:15:50;100611.63;;;19.26;71.74
10897;BME280;5501;51.176;6.470;2023-09-19T10:20:57;100599.38;;;19.07;71.57
10897;BME280;5501;51.176;6.470;2023-09-19T10:26:01;100607.19;;;19.25;71.61
10897;BME280;5501;51.176;6.470;2023-09-19T10:31:03;100609.09;;;19.37;69.59
10897;BME280;5501;51.176;6.470;2023-09-19T10:36:05;100606.28;;;19.39;70.35
10897;BME280;5501;51.176;6.470;2023-09-19T10:41:08;100600.06;;;19.38;69.55
10897;BME280;5501;51.176;6.470;2023-09-19T10:46:12;100605.75;;;19.60;70.61
10897;BME280;5501;51.176;6.470;2023-09-19T10:51:18;100590.56;;;19.45;69.90
10897;BME280;5501;51.176;6.470;2023-09-19T11:01:49;100614.81;;;19.59;67.96
10897;BME280;5501;51.176;6.470;2023-09-19T11:07:05;100616.13;;;19.66;67.13
10897;BME280;5501;51.176;6.470;2023-09-19T11:17:43;100625.00;;;19.68;63.58
10897;BME280;5501;51.176;6.470;2023-09-19T11:33:27;100617.31;;;20.02;61.99
10897;BME280;5501;51.176;6.470;2023-09-19T11:43:52;100626.19;;;20.04;59.97
10897;BME280;5501;51.176;6.470;2023-09-19T11:49:06;100614.34;;;20.19;60.35
10897;BME280;5501;51.176;6.470;2023-09-19T11:54:15;100602.94;;;20.40;59.97
10897;BME280;5501;51.176;6.470;2023-09-19T11:59:37;100587.38;;;20.44;59.72
10897;BME280;5501;51.176;6.470;2023-09-19T12:04:42;100578.63;;;20.40;59.27
10897;BME280;5501;51.176;6.470;2023-09-19T12:09:48;100587.06;;;20.61;59.98
10897;BME280;5501;51.176;6.470;2023-09-19T12:14:53;100589.13;;;20.45;58.17
10897;BME280;5501;51.176;6.470;2023-09-19T12:19:56;100575.34;;;20.85;57.77
10897;BME280;5501;51.176;6.470;2023-09-19T12:25:06;100576.31;;;20.97;57.87
10897;BME280;5501;51.176;6.470;2023-09-19T12:30:09;100561.94;;;20.84;57.79
10897;BME280;5501;51.176;6.470;2023-09-19T12:35:32;100551.03;;;20.98;57.65
10897;BME280;5501;51.176;6.470;2023-09-19T12:40:37;100548.66;;;20.93;57.10
10897;BME280;5501;51.176;6.470;2023-09-19T12:45:42;100547.88;;;21.27;56.63
10897;BME280;5501;51.176;6.470;2023-09-19T12:51:12;100538.25;;;21.00;56.12
10897;BME280;5501;51.176;6.470;2023-09-19T12:56:16;100533.50;;;20.91;57.07
10897;BME280;5501;51.176;6.470;2023-09-19T13:01:19;100528.03;;;21.16;55.65
10897;BME280;5501;51.176;6.470;2023-09-19T13:06:35;100540.56;;;21.17;56.48
10897;BME280;5501;51.176;6.470;2023-09-19T13:11:39;100538.22;;;21.36;57.23
10897;BME280;5501;51.176;6.470;2023-09-19T13:17:02;100554.97;;;21.41;57.16
10897;BME280;5501;51.176;6.470;2023-09-19T13:22:43;100550.63;;;21.51;56.31
10897;BME280;5501;51.176;6.470;2023-09-19T13:27:57;100564.25;;;21.49;56.75
10897;BME280;5501;51.176;6.470;2023-09-19T13:33:06;100552.25;;;21.30;56.93
10897;BME280;5501;51.176;6.470;2023-09-19T13:38:09;100545.63;;;20.98;57.99
10897;BME280;5501;51.176;6.470;2023-09-19T13:43:11;100546.66;;;21.08;58.06
10897;BME280;5501;51.176;6.470;2023-09-19T13:48:13;100546.44;;;21.11;58.53
10897;BME280;5501;51.176;6.470;2023-09-19T13:53:15;100551.84;;;21.11;58.34
10897;BME280;5501;51.176;6.470;2023-09-19T13:58:18;100564.88;;;21.06;58.68
10897;BME280;5501;51.176;6.470;2023-09-19T14:03:20;100556.59;;;21.20;58.59
10897;BME280;5501;51.176;6.470;2023-09-19T14:08:23;100557.47;;;21.08;59.43
10897;BME280;5501;51.176;6.470;2023-09-19T14:13:25;100562.16;;;21.42;58.51
10897;BME280;5501;51.176;6.470;2023-09-19T14:18:27;100557.94;;;21.38;58.94
10897;BME280;5501;51.176;6.470;2023-09-19T14:23:28;100557.94;;;21.02;59.26
10897;BME280;5501;51.176;6.470;2023-09-19T14:28:31;100552.25;;;20.94;59.01
10897;BME280;5501;51.176;6.470;2023-09-19T14:33:35;100544.47;;;21.13;59.95
10897;BME280;5501;51.176;6.470;2023-09-19T14:38:38;100547.75;;;21.05;60.25
10897;BME280;5501;51.176;6.470;2023-09-19T14:43:40;100548.53;;;20.95;60.47
10897;BME280;5501;51.176;6.470;2023-09-19T14:48:42;100539.88;;;21.02;60.44
10897;BME280;5501;51.176;6.470;2023-09-19T14:53:46;100546.78;;;21.06;60.75
10897;BME280;5501;51.176;6.470;2023-09-19T14:58:48;100537.72;;;20.95;60.60
10897;BME280;5501;51.176;6.470;2023-09-19T15:03:50;100545.00;;;20.69;61.01
10897;BME280;5501;51.176;6.470;2023-09-19T15:08:52;100528.97;;;20.79;61.34
10897;BME280;5501;51.176;6.470;2023-09-19T15:13:54;100538.06;;;20.78;60.65
10897;BME280;5501;51.176;6.470;2023-09-19T15:18:56;100539.56;;;20.94;60.99
10897;BME280;5501;51.176;6.470;2023-09-19T15:23:58;100540.66;;;20.79;61.39
10897;BME280;5501;51.176;6.470;2023-09-19T15:28:59;100537.59;;;20.84;61.43
10897;BME280;5501;51.176;6.470;2023-09-19T15:34:02;100527.22;;;20.90;61.42
10897;BME280;5501;51.176;6.470;2023-09-19T15:39:08;100520.19;;;20.88;62.13
10897;BME280;5501;51.176;6.470;2023-09-19T15:44:14;100519.19;;;20.89;61.39
10897;BME280;5501;51.176;6.470;2023-09-19T15:49:17;100505.56;;;20.90;62.14
10897;BME280;5501;51.176;6.470;2023-09-19T15:54:19;100506.16;;;20.83;62.87
10897;BME280;5501;51.176;6.470;2023-09-19T15:59:20;100506.88;;;21.10;61.60
10897;BME280;5501;51.176;6.470;2023-09-19T16:04:22;100509.22;;;21.14;62.42
10897;BME280;5501;51.176;6.470;2023-09-19T16:09:24;100498.03;;;20.83;62.14
10897;BME280;5501;51.176;6.470;2023-09-19T16:14:25;100493.91;;;20.90;61.11
10897;BME280;5501;51.176;6.470;2023-09-19T16:19:30;100502.38;;;20.98;61.44
10897;BME280;5501;51.176;6.470;2023-09-19T16:24:34;100502.63;;;20.70;62.39
10897;BME280;5501;51.176;6.470;2023-09-19T16:29:35;100509.63;;;20.72;63.43
10897;BME280;5501;51.176;6.470;2023-09-19T16:34:37;100505.16;;;20.84;62.60
10897;BME280;5501;51.176;6.470;2023-09-19T16:39:39;100512.13;;;20.75;62.69
10897;BME280;5501;51.176;6.470;2023-09-19T16:44:41;100520.81;;;20.55;63.19
10897;BME280;5501;51.176;6.470;2023-09-19T16:49:42;100512.13;;;20.63;63.02
10897;BME280;5501;51.176;6.470;2023-09-19T16:54:44;100517.22;;;20.55;63.36
10897;BME280;5501;51.176;6.470;2023-09-19T16:59:46;100512.38;;;20.47;62.94
10897;BME280;5501;51.176;6.470;2023-09-19T17:04:47;100509.38;;;20.39;64.31
10897;BME280;5501;51.176;6.470;2023-09-19T17:09:49;100507.19;;;20.32;65.50
10897;BME280;5501;51.176;6.470;2023-09-19T17:14:52;100506.97;;;20.35;64.96
10897;BME280;5501;51.176;6.470;2023-09-19T17:19:54;100501.16;;;20.41;64.77
10897;BME280;5501;51.176;6.470;2023-09-19T17:24:55;100517.38;;;20.16;65.77
10897;BME280;5501;51.176;6.470;2023-09-19T17:29:57;100510.88;;;20.31;64.59
10897;BME280;5501;51.176;6.470;2023-09-19T17:34:59;100521.03;;;20.15;65.58
10897;BME280;5501;51.176;6.470;2023-09-19T17:40:00;100520.19;;;20.14;65.69
10897;BME280;5501;51.176;6.470;2023-09-19T17:45:06;100527.94;;;20.19;64.72
10897;BME280;5501;51.176;6.470;2023-09-19T17:50:09;100522.53;;;20.19;65.20
10897;BME280;5501;51.176;6.470;2023-09-19T17:55:14;100536.53;;;19.98;66.37
10897;BME280;5501;51.176;6.470;2023-09-19T18:00:18;100527.91;;;20.06;65.39
10897;BME280;5501;51.176;6.470;2023-09-19T18:05:22;100527.41;;;20.14;65.33
10897;BME280;5501;51.176;6.470;2023-09-19T18:10:24;100528.13;;;20.03;65.55
10897;BME280;5501;51.176;6.470;2023-09-19T18:15:26;100533.59;;;19.76;66.63
10897;BME280;5501;51.176;6.470;2023-09-19T18:20:34;100532.66;;;20.02;65.73
10897;BME280;5501;51.176;6.470;2023-09-19T18:25:40;100534.41;;;20.04;65.79
10897;BME280;5501;51.176;6.470;2023-09-19T18:30:42;100535.13;;;20.06;65.27
10897;BME280;5501;51.176;6.470;2023-09-19T18:35:44;100540.19;;;19.98;65.76
10897;BME280;5501;51.176;6.470;2023-09-19T18:40:46;100536.53;;;19.98;65.63
10897;BME280;5501;51.176;6.470;2023-09-19T18:45:55;100541.81;;;19.88;66.22
10897;BME280;5501;51.176;6.470;2023-09-19T18:50:57;100539.31;;;19.84;66.46
10897;BME280;5501;51.176;6.470;2023-09-19T18:56:07;100532.59;;;19.77;66.54
10897;BME280;5501;51.176;6.470;2023-09-19T19:01:12;100524.66;;;19.88;66.19
10897;BME280;5501;51.176;6.470;2023-09-19T19:06:14;100528.09;;;19.90;66.14
10897;BME280;5501;51.176;6.470;2023-09-19T19:11:17;100530.88;;;19.76;66.43
10897;BME280;5501;51.176;6.470;2023-09-19T19:16:21;100525.94;;;19.83;66.72
10897;BME280;5501;51.176;6.470;2023-09-19T19:21:25;100530.69;;;19.79;66.60
10897;BME280;5501;51.176;6.470;2023-09-19T19:26:27;100527.22;;;19.77;66.08
10897;BME280;5501;51.176;6.470;2023-09-19T19:31:29;100528.00;;;19.79;67.11
10897;BME280;5501;51.176;6.470;2023-09-19T19:36:31;100526.91;;;19.94;66.52
10897;BME280;5501;51.176;6.470;2023-09-19T19:41:35;100529.56;;;19.69;67.28
10897;BME280;5501;51.176;6.470;2023-09-19T19:46:40;100517.94;;;19.81;67.49
10897;BME280;5501;51.176;6.470;2023-09-19T19:51:41;100520.09;;;19.76;67.81
10897;BME280;5501;51.176;6.470;2023-09-19T19:56:46;100531.53;;;19.80;67.64
10897;BME280;5501;51.176;6.470;2023-09-19T20:01:48;100537.56;;;19.71;68.43
10897;BME280;5501;51.176;6.470;2023-09-19T20:06:50;100535.66;;;19.85;68.27
10897;BME280;5501;51.176;6.470;2023-09-19T20:11:52;100530.34;;;19.71;68.88
10897;BME280;5501;51.176;6.470;2023-09-19T20:16:56;100516.84;;;19.71;68.97
10897;BME280;5501;51.176;6.470;2023-09-19T20:21:59;100530.44;;;19.70;69.41
10897;BME280;5501;51.176;6.470;2023-09-19T20:27:03;100534.97;;;19.69;69.96
10897;BME280;5501;51.176;6.470;2023-09-19T20:32:07;100520.84;;;19.78;69.59
10897;BME280;5501;51.176;6.470;2023-09-19T20:37:10;100527.19;;;19.65;70.63
10897;BME280;5501;51.176;6.470;2023-09-19T20:42:12;100526.31;;;19.64;70.47
10897;BME280;5501;51.176;6.470;2023-09-19T20:47:14;100519.22;;;19.63;70.97
10897;BME280;5501;51.176;6.470;2023-09-19T20:52:16;100523.19;;;19.70;70.59
10897;BME280;5501;51.176;6.470;2023-09-19T20:57:18;100509.69;;;19.58;71.53
10897;BME280;5501;51.176;6.470;2023-09-19T21:02:19;100514.22;;;19.57;71.27
10897;BME280;5501;51.176;6.470;2023-09-19T21:07:21;100516.72;;;19.60;71.13
10897;BME280;5501;51.176;6.470;2023-09-19T21:12:25;100515.03;;;19.45;72.23
10897;BME280;5501;51.176;6.470;2023-09-19T21:17:27;100513.75;;;19.51;72.00
10897;BME280;5501;51.176;6.470;2023-09-19T21:22:28;100516.78;;;19.46;72.75
10897;BME280;5501;51.176;6.470;2023-09-19T21:27:31;100523.22;;;19.44;72.94
10897;BME280;5501;51.176;6.470;2023-09-19T21:32:33;100506.66;;;19.50;72.35
10897;BME280;5501;51.176;6.470;2023-09-19T21:37:35;100506.41;;;19.40;73.06
10897;BME280;5501;51.176;6.470;2023-09-19T21:42:37;100508.09;;;19.29;73.88
10897;BME280;5501;51.176;6.470;2023-09-19T21:47:38;100503.78;;;19.26;74.93
10897;BME280;5501;51.176;6.470;2023-09-19T21:52:40;100499.91;;;19.30;74.52
10897;BME280;5501;51.176;6.470;2023-09-19T21:57:42;100498.09;;;19.17;75.26
10897;BME280;5501;51.176;6.470;2023-09-19T22:02:44;100501.41;;;19.08;75.77
10897;BME280;5501;51.176;6.470;2023-09-19T22:07:46;100504.72;;;19.25;75.79
10897;BME280;5501;51.176;6.470;2023-09-19T22:12:48;100502.22;;;19.22;75.87
10897;BME280;5501;51.176;6.470;2023-09-19T22:17:50;100490.84;;;19.31;75.59
10897;BME280;5501;51.176;6.470;2023-09-19T22:22:53;100492.75;;;19.29;75.41
10897;BME280;5501;51.176;6.470;2023-09-19T22:27:58;100487.06;;;19.34;75.85
10897;BME280;5501;51.176;6.470;2023-09-19T22:33:03;100484.81;;;19.40;75.08
10897;BME280;5501;51.176;6.470;2023-09-19T22:38:06;100479.84;;;19.34;75.81
10897;BME280;5501;51.176;6.470;2023-09-19T22:43:15;100486.34;;;19.44;75.46
10897;BME280;5501;51.176;6.470;2023-09-19T22:48:19;100487.13;;;19.46;74.88
10897;BME280;5501;51.176;6.470;2023-09-19T22:53:25;100496.69;;;19.38;75.93
10897;BME280;5501;51.176;6.470;2023-09-19T22:58:28;100496.59;;;19.52;74.95
10897;BME280;5501;51.176;6.470;2023-09-19T23:03:31;100502.44;;;19.58;75.25
10897;BME280;5501;51.176;6.470;2023-09-19T23:08:33;100495.31;;;19.45;75.40
10897;BME280;5501;51.176;6.470;2023-09-19T23:13:35;100498.44;;;19.51;74.98
10897;BME280;5501;51.176;6.470;2023-09-19T23:18:40;100501.78;;;19.42;75.82
10897;BME280;5501;51.176;6.470;2023-09-19T23:23:44;100496.16;;;19.45;76.22
10897;BME280;5501;51.176;6.470;2023-09-19T23:28:48;100494.09;;;19.36;76.23
10897;BME280;5501;51.176;6.470;2023-09-19T23:33:51;100496.03;;;19.34;77.12
10897;BME280;5501;51.176;6.470;2023-09-19T23:38:53;100507.22;;;19.28;77.21
10897;BME280;5501;51.176;6.470;2023-09-19T23:43:59;100490.63;;;19.34;77.03
10897;BME280;5501;51.176;6.470;2023-09-19T23:49:00;100490.84;;;19.17;78.35
10897;BME280;5501;51.176;6.470;2023-09-19T23:54:06;100490.56;;;19.22;78.38
10897;BME280;5501;51.176;6.470;2023-09-19T23:59:15;100492.06;;;18.99;79.51
